Airfield :







YOU CAN JOIN US ON...

 
LOGIN :

Register | Disclaimer

   EN    FR    IT 

 









Legend :    VFR   Marginal VFR   IFR   Intensive IFR   Very Intensive IFR
Visi :
Ceiling :
>= 8 km
>= 3000ft
5 to 8 km
1000 to 3000 ft
1500m to 5 km
500 to 1000 ft
800 to 1500m
200 to 500 ft
< 800m
< 200 ft
Symbols :   Thunderstorms  Fog  Heavy snow  Heavy precipitations  Wind > 20 kt







- Airport Elevation : 271 ft


KBAF - Barnes Municipal

CURRENT METAR :
  • 191153Z 17007KT 10SM -RA FEW050 BKN110 14/08 A3005 RMK AO2 RAB43 SLP176 P0000 60000 T01390083 10144 20089 50000

EXPIRED METARs :
  • 191053Z 20005KT 10SM CLR 11/08 A3006 RMK AO2 SLP180 T01110083
  • 190953Z AUTO 00000KT 10SM CLR 09/07 A3006 RMK AO2 SLP179 T00890072

TAF KBAF
Valid from the 19 at 12:00 until the 20 at 12:00 UTC


191121Z 1912/2012 18005KT P6SM BKN050
TEMPO 1912/1914 4SM SHRA
FM191500 19011G21KT P6SM BKN045
FM200200 18008KT P6SM OVC008
FM200800 19007KT P6SM OVC010
KZBW FIR / North America



MET'MAP, your aeronautical weather chart ! - Copyright ORBIFLY December 2007 - Disclaimer

ORBIFLY MET'MAP TEAM :

Programming & Development : Alexandra Zaïnal
Concept & Development : Baudouin d'Aumeries
Co-Development & Prog : Marc-Olivier Méhu
Technical & hardware support : Manuel Goepfert

Contact : metmap@orbifly.com




SOURCES & CREDITS :

   NOAA